sensor_id;sensor_type;location;lat;lon;timestamp;P1;durP1;ratioP1;P2;durP2;ratioP2
59587;SDS011;45412;54.472;18.464;2023-08-06T00:00:47;12.50;;;5.20;;
59587;SDS011;45412;54.472;18.464;2023-08-06T00:03:48;8.90;;;2.70;;
59587;SDS011;45412;54.472;18.464;2023-08-06T00:06:35;6.00;;;2.20;;
59587;SDS011;45412;54.472;18.464;2023-08-06T00:09:21;6.30;;;2.10;;
59587;SDS011;45412;54.472;18.464;2023-08-06T00:12:09;11.60;;;2.50;;
59587;SDS011;45412;54.472;18.464;2023-08-06T00:14:56;7.20;;;2.50;;
59587;SDS011;45412;54.472;18.464;2023-08-06T00:17:42;7.90;;;2.30;;
59587;SDS011;45412;54.472;18.464;2023-08-06T00:20:30;8.20;;;2.20;;
59587;SDS011;45412;54.472;18.464;2023-08-06T00:23:17;7.30;;;2.40;;
59587;SDS011;45412;54.472;18.464;2023-08-06T00:26:04;8.00;;;2.40;;
59587;SDS011;45412;54.472;18.464;2023-08-06T00:28:50;7.10;;;2.10;;
59587;SDS011;45412;54.472;18.464;2023-08-06T00:31:38;6.60;;;2.30;;
59587;SDS011;45412;54.472;18.464;2023-08-06T00:34:25;7.40;;;2.30;;
59587;SDS011;45412;54.472;18.464;2023-08-06T00:37:11;6.70;;;2.20;;
59587;SDS011;45412;54.472;18.464;2023-08-06T00:39:58;7.00;;;2.50;;
59587;SDS011;45412;54.472;18.464;2023-08-06T00:42:45;7.30;;;2.60;;
59587;SDS011;45412;54.472;18.464;2023-08-06T00:45:35;7.10;;;2.20;;
59587;SDS011;45412;54.472;18.464;2023-08-06T00:48:23;13.80;;;2.70;;
59587;SDS011;45412;54.472;18.464;2023-08-06T00:51:10;7.50;;;2.10;;
59587;SDS011;45412;54.472;18.464;2023-08-06T00:53:57;8.60;;;2.20;;
59587;SDS011;45412;54.472;18.464;2023-08-06T00:56:44;8.90;;;2.20;;
59587;SDS011;45412;54.472;18.464;2023-08-06T00:59:32;9.30;;;2.60;;
59587;SDS011;45412;54.472;18.464;2023-08-06T01:02:20;8.40;;;2.30;;
59587;SDS011;45412;54.472;18.464;2023-08-06T01:05:07;7.80;;;2.40;;
59587;SDS011;45412;54.472;18.464;2023-08-06T01:14:06;6.50;;;2.10;;
59587;SDS011;45412;54.472;18.464;2023-08-06T01:17:00;8.20;;;2.50;;
59587;SDS011;45412;54.472;18.464;2023-08-06T01:19:48;8.60;;;2.40;;
59587;SDS011;45412;54.472;18.464;2023-08-06T01:22:36;8.30;;;2.40;;
59587;SDS011;45412;54.472;18.464;2023-08-06T01:25:29;7.30;;;2.10;;
59587;SDS011;45412;54.472;18.464;2023-08-06T01:28:38;8.40;;;2.70;;
59587;SDS011;45412;54.472;18.464;2023-08-06T01:31:39;7.60;;;2.30;;
59587;SDS011;45412;54.472;18.464;2023-08-06T01:34:31;6.90;;;2.40;;
59587;SDS011;45412;54.472;18.464;2023-08-06T01:37:21;7.30;;;2.10;;
59587;SDS011;45412;54.472;18.464;2023-08-06T01:40:16;7.70;;;2.50;;
59587;SDS011;45412;54.472;18.464;2023-08-06T01:43:03;7.80;;;2.10;;
59587;SDS011;45412;54.472;18.464;2023-08-06T01:45:49;7.70;;;2.30;;
59587;SDS011;45412;54.472;18.464;2023-08-06T01:48:36;5.90;;;2.10;;
59587;SDS011;45412;54.472;18.464;2023-08-06T01:51:23;8.80;;;2.10;;
59587;SDS011;45412;54.472;18.464;2023-08-06T01:54:17;6.90;;;2.00;;
59587;SDS011;45412;54.472;18.464;2023-08-06T01:57:25;7.40;;;2.20;;
59587;SDS011;45412;54.472;18.464;2023-08-06T02:00:12;6.00;;;2.00;;
59587;SDS011;45412;54.472;18.464;2023-08-06T02:02:58;8.40;;;2.00;;
59587;SDS011;45412;54.472;18.464;2023-08-06T02:05:45;5.90;;;2.00;;
59587;SDS011;45412;54.472;18.464;2023-08-06T02:08:32;6.10;;;1.90;;
59587;SDS011;45412;54.472;18.464;2023-08-06T02:11:18;7.70;;;2.10;;
59587;SDS011;45412;54.472;18.464;2023-08-06T02:14:04;7.10;;;2.10;;
59587;SDS011;45412;54.472;18.464;2023-08-06T02:16:51;7.60;;;2.60;;
59587;SDS011;45412;54.472;18.464;2023-08-06T02:19:37;6.70;;;2.10;;
59587;SDS011;45412;54.472;18.464;2023-08-06T02:22:24;5.90;;;2.00;;
59587;SDS011;45412;54.472;18.464;2023-08-06T02:25:10;7.50;;;2.30;;
59587;SDS011;45412;54.472;18.464;2023-08-06T02:27:58;8.60;;;2.40;;
59587;SDS011;45412;54.472;18.464;2023-08-06T02:30:51;6.50;;;2.40;;
59587;SDS011;45412;54.472;18.464;2023-08-06T02:33:38;10.10;;;2.70;;
59587;SDS011;45412;54.472;18.464;2023-08-06T02:36:25;7.60;;;3.20;;
59587;SDS011;45412;54.472;18.464;2023-08-06T02:39:17;6.50;;;2.20;;
59587;SDS011;45412;54.472;18.464;2023-08-06T02:42:08;6.80;;;2.50;;
59587;SDS011;45412;54.472;18.464;2023-08-06T02:44:55;7.40;;;2.80;;
59587;SDS011;45412;54.472;18.464;2023-08-06T02:47:42;7.30;;;2.60;;
59587;SDS011;45412;54.472;18.464;2023-08-06T02:50:28;7.70;;;2.50;;
59587;SDS011;45412;54.472;18.464;2023-08-06T02:53:15;7.40;;;2.50;;
59587;SDS011;45412;54.472;18.464;2023-08-06T02:56:05;6.30;;;2.40;;
59587;SDS011;45412;54.472;18.464;2023-08-06T02:59:01;7.90;;;2.80;;
59587;SDS011;45412;54.472;18.464;2023-08-06T03:01:56;7.80;;;2.60;;
59587;SDS011;45412;54.472;18.464;2023-08-06T03:04:48;7.00;;;2.60;;
59587;SDS011;45412;54.472;18.464;2023-08-06T03:07:36;7.10;;;2.40;;
59587;SDS011;45412;54.472;18.464;2023-08-06T03:10:29;9.10;;;2.80;;
59587;SDS011;45412;54.472;18.464;2023-08-06T03:13:18;7.40;;;2.80;;
59587;SDS011;45412;54.472;18.464;2023-08-06T03:16:05;7.90;;;3.00;;
59587;SDS011;45412;54.472;18.464;2023-08-06T03:18:52;7.70;;;2.60;;
59587;SDS011;45412;54.472;18.464;2023-08-06T03:21:39;9.00;;;2.80;;
59587;SDS011;45412;54.472;18.464;2023-08-06T03:24:27;9.80;;;3.10;;
59587;SDS011;45412;54.472;18.464;2023-08-06T03:27:15;8.70;;;3.10;;
59587;SDS011;45412;54.472;18.464;2023-08-06T03:30:02;8.70;;;2.80;;
59587;SDS011;45412;54.472;18.464;2023-08-06T03:32:49;7.10;;;2.70;;
59587;SDS011;45412;54.472;18.464;2023-08-06T03:35:37;6.70;;;2.90;;
59587;SDS011;45412;54.472;18.464;2023-08-06T03:38:24;8.40;;;3.40;;
59587;SDS011;45412;54.472;18.464;2023-08-06T03:41:12;9.40;;;3.30;;
59587;SDS011;45412;54.472;18.464;2023-08-06T03:43:59;7.70;;;3.30;;
59587;SDS011;45412;54.472;18.464;2023-08-06T03:46:49;7.20;;;2.90;;
59587;SDS011;45412;54.472;18.464;2023-08-06T03:49:36;7.10;;;2.60;;
59587;SDS011;45412;54.472;18.464;2023-08-06T03:52:23;8.40;;;2.80;;
59587;SDS011;45412;54.472;18.464;2023-08-06T03:55:10;10.20;;;3.20;;
59587;SDS011;45412;54.472;18.464;2023-08-06T03:57:57;8.10;;;2.80;;
59587;SDS011;45412;54.472;18.464;2023-08-06T04:00:44;9.20;;;3.10;;
59587;SDS011;45412;54.472;18.464;2023-08-06T04:03:31;8.60;;;2.80;;
59587;SDS011;45412;54.472;18.464;2023-08-06T04:06:19;7.20;;;2.80;;
59587;SDS011;45412;54.472;18.464;2023-08-06T04:09:08;9.20;;;3.10;;
59587;SDS011;45412;54.472;18.464;2023-08-06T04:11:54;9.60;;;3.30;;
59587;SDS011;45412;54.472;18.464;2023-08-06T04:14:41;8.40;;;2.60;;
59587;SDS011;45412;54.472;18.464;2023-08-06T04:17:29;8.30;;;2.90;;
59587;SDS011;45412;54.472;18.464;2023-08-06T04:20:15;9.20;;;3.30;;
59587;SDS011;45412;54.472;18.464;2023-08-06T04:23:05;8.40;;;2.90;;
59587;SDS011;45412;54.472;18.464;2023-08-06T04:25:56;9.10;;;2.70;;
59587;SDS011;45412;54.472;18.464;2023-08-06T04:28:45;9.00;;;2.70;;
59587;SDS011;45412;54.472;18.464;2023-08-06T04:31:33;8.60;;;2.70;;
59587;SDS011;45412;54.472;18.464;2023-08-06T04:34:20;8.60;;;2.70;;
59587;SDS011;45412;54.472;18.464;2023-08-06T04:37:07;8.70;;;3.40;;
59587;SDS011;45412;54.472;18.464;2023-08-06T04:39:53;6.80;;;2.80;;
59587;SDS011;45412;54.472;18.464;2023-08-06T04:42:40;8.60;;;3.20;;
59587;SDS011;45412;54.472;18.464;2023-08-06T04:45:32;10.90;;;3.30;;
59587;SDS011;45412;54.472;18.464;2023-08-06T04:48:19;11.00;;;3.40;;
59587;SDS011;45412;54.472;18.464;2023-08-06T04:51:06;10.60;;;3.20;;
59587;SDS011;45412;54.472;18.464;2023-08-06T04:53:52;8.20;;;3.00;;
59587;SDS011;45412;54.472;18.464;2023-08-06T04:56:39;8.30;;;3.10;;
59587;SDS011;45412;54.472;18.464;2023-08-06T04:59:28;10.30;;;3.40;;
59587;SDS011;45412;54.472;18.464;2023-08-06T05:02:14;8.50;;;2.90;;
59587;SDS011;45412;54.472;18.464;2023-08-06T05:05:01;9.60;;;3.70;;
59587;SDS011;45412;54.472;18.464;2023-08-06T05:07:49;10.30;;;3.30;;
59587;SDS011;45412;54.472;18.464;2023-08-06T05:10:36;10.30;;;3.60;;
59587;SDS011;45412;54.472;18.464;2023-08-06T05:13:23;11.00;;;3.50;;
59587;SDS011;45412;54.472;18.464;2023-08-06T05:16:10;10.20;;;3.20;;
59587;SDS011;45412;54.472;18.464;2023-08-06T05:18:58;10.70;;;3.90;;
59587;SDS011;45412;54.472;18.464;2023-08-06T05:21:48;9.20;;;3.40;;
59587;SDS011;45412;54.472;18.464;2023-08-06T05:24:35;11.90;;;3.50;;
59587;SDS011;45412;54.472;18.464;2023-08-06T05:27:21;10.90;;;3.20;;
59587;SDS011;45412;54.472;18.464;2023-08-06T05:30:08;9.70;;;3.20;;
59587;SDS011;45412;54.472;18.464;2023-08-06T05:32:56;11.10;;;3.90;;
59587;SDS011;45412;54.472;18.464;2023-08-06T05:35:42;11.20;;;3.50;;
59587;SDS011;45412;54.472;18.464;2023-08-06T05:38:29;8.80;;;3.10;;
59587;SDS011;45412;54.472;18.464;2023-08-06T05:41:22;7.20;;;3.20;;
59587;SDS011;45412;54.472;18.464;2023-08-06T05:44:08;7.80;;;3.00;;
59587;SDS011;45412;54.472;18.464;2023-08-06T05:46:54;8.10;;;3.00;;
59587;SDS011;45412;54.472;18.464;2023-08-06T05:49:41;7.10;;;2.80;;
59587;SDS011;45412;54.472;18.464;2023-08-06T05:52:28;6.10;;;2.30;;
59587;SDS011;45412;54.472;18.464;2023-08-06T05:55:14;7.60;;;2.70;;
59587;SDS011;45412;54.472;18.464;2023-08-06T05:58:01;7.60;;;2.40;;
59587;SDS011;45412;54.472;18.464;2023-08-06T06:00:49;7.40;;;2.50;;
59587;SDS011;45412;54.472;18.464;2023-08-06T06:03:36;6.40;;;2.10;;
59587;SDS011;45412;54.472;18.464;2023-08-06T06:06:26;7.60;;;2.10;;
59587;SDS011;45412;54.472;18.464;2023-08-06T06:09:13;6.60;;;2.30;;
59587;SDS011;45412;54.472;18.464;2023-08-06T06:12:00;6.30;;;2.30;;
59587;SDS011;45412;54.472;18.464;2023-08-06T06:14:47;6.50;;;2.20;;
59587;SDS011;45412;54.472;18.464;2023-08-06T06:17:34;6.20;;;2.20;;
59587;SDS011;45412;54.472;18.464;2023-08-06T06:20:22;5.90;;;1.90;;
59587;SDS011;45412;54.472;18.464;2023-08-06T06:23:09;7.40;;;2.50;;
59587;SDS011;45412;54.472;18.464;2023-08-06T06:25:57;9.20;;;2.80;;
59587;SDS011;45412;54.472;18.464;2023-08-06T06:29:07;7.90;;;3.00;;
59587;SDS011;45412;54.472;18.464;2023-08-06T06:32:35;9.50;;;3.20;;
59587;SDS011;45412;54.472;18.464;2023-08-06T06:35:22;7.70;;;3.30;;
59587;SDS011;45412;54.472;18.464;2023-08-06T06:38:08;8.60;;;3.40;;
59587;SDS011;45412;54.472;18.464;2023-08-06T06:40:56;8.70;;;3.40;;
59587;SDS011;45412;54.472;18.464;2023-08-06T06:43:44;8.50;;;3.20;;
59587;SDS011;45412;54.472;18.464;2023-08-06T06:46:30;9.30;;;3.30;;
59587;SDS011;45412;54.472;18.464;2023-08-06T06:49:17;10.70;;;4.20;;
59587;SDS011;45412;54.472;18.464;2023-08-06T06:52:04;10.80;;;3.90;;
59587;SDS011;45412;54.472;18.464;2023-08-06T06:54:51;9.00;;;3.60;;
59587;SDS011;45412;54.472;18.464;2023-08-06T06:57:46;9.20;;;4.20;;
59587;SDS011;45412;54.472;18.464;2023-08-06T07:00:38;8.80;;;3.90;;
59587;SDS011;45412;54.472;18.464;2023-08-06T07:03:24;9.40;;;3.60;;
59587;SDS011;45412;54.472;18.464;2023-08-06T07:06:15;7.90;;;3.40;;
59587;SDS011;45412;54.472;18.464;2023-08-06T07:09:02;8.30;;;3.50;;
59587;SDS011;45412;54.472;18.464;2023-08-06T07:11:52;7.10;;;3.40;;
59587;SDS011;45412;54.472;18.464;2023-08-06T07:14:39;6.00;;;2.80;;
59587;SDS011;45412;54.472;18.464;2023-08-06T07:17:26;6.80;;;2.70;;
59587;SDS011;45412;54.472;18.464;2023-08-06T07:20:13;7.00;;;3.20;;
59587;SDS011;45412;54.472;18.464;2023-08-06T07:23:00;7.80;;;3.20;;
59587;SDS011;45412;54.472;18.464;2023-08-06T07:25:54;8.00;;;3.20;;
59587;SDS011;45412;54.472;18.464;2023-08-06T07:28:40;6.60;;;2.90;;
59587;SDS011;45412;54.472;18.464;2023-08-06T07:31:29;7.40;;;2.80;;
59587;SDS011;45412;54.472;18.464;2023-08-06T07:34:16;6.50;;;2.70;;
59587;SDS011;45412;54.472;18.464;2023-08-06T07:37:03;8.60;;;3.40;;
59587;SDS011;45412;54.472;18.464;2023-08-06T07:39:50;7.20;;;2.90;;
59587;SDS011;45412;54.472;18.464;2023-08-06T07:42:36;6.80;;;2.80;;
59587;SDS011;45412;54.472;18.464;2023-08-06T07:45:23;8.20;;;3.00;;
59587;SDS011;45412;54.472;18.464;2023-08-06T07:48:12;8.60;;;4.20;;
59587;SDS011;45412;54.472;18.464;2023-08-06T07:50:59;7.40;;;2.80;;
59587;SDS011;45412;54.472;18.464;2023-08-06T07:53:46;7.30;;;3.00;;
59587;SDS011;45412;54.472;18.464;2023-08-06T07:56:33;9.90;;;3.10;;
59587;SDS011;45412;54.472;18.464;2023-08-06T07:59:22;8.40;;;3.30;;
59587;SDS011;45412;54.472;18.464;2023-08-06T08:02:12;7.10;;;2.80;;
59587;SDS011;45412;54.472;18.464;2023-08-06T08:05:01;5.80;;;2.10;;
59587;SDS011;45412;54.472;18.464;2023-08-06T08:07:47;7.30;;;2.50;;
59587;SDS011;45412;54.472;18.464;2023-08-06T08:10:34;7.50;;;2.50;;
59587;SDS011;45412;54.472;18.464;2023-08-06T08:13:23;8.80;;;3.10;;
59587;SDS011;45412;54.472;18.464;2023-08-06T08:16:11;8.10;;;3.00;;
59587;SDS011;45412;54.472;18.464;2023-08-06T08:18:58;7.40;;;2.40;;
59587;SDS011;45412;54.472;18.464;2023-08-06T08:21:44;7.80;;;3.00;;
59587;SDS011;45412;54.472;18.464;2023-08-06T08:24:31;8.10;;;3.20;;
59587;SDS011;45412;54.472;18.464;2023-08-06T08:27:18;7.30;;;2.90;;
59587;SDS011;45412;54.472;18.464;2023-08-06T08:30:05;8.60;;;3.20;;
59587;SDS011;45412;54.472;18.464;2023-08-06T08:32:53;8.30;;;3.40;;
59587;SDS011;45412;54.472;18.464;2023-08-06T08:35:45;7.10;;;3.20;;
59587;SDS011;45412;54.472;18.464;2023-08-06T08:38:41;8.00;;;3.20;;
59587;SDS011;45412;54.472;18.464;2023-08-06T08:42:01;7.90;;;3.40;;
59587;SDS011;45412;54.472;18.464;2023-08-06T08:45:12;8.20;;;3.20;;
59587;SDS011;45412;54.472;18.464;2023-08-06T08:48:03;9.80;;;3.80;;
59587;SDS011;45412;54.472;18.464;2023-08-06T08:50:50;8.00;;;2.80;;
59587;SDS011;45412;54.472;18.464;2023-08-06T08:53:37;7.50;;;3.50;;
59587;SDS011;45412;54.472;18.464;2023-08-06T08:56:59;8.50;;;3.80;;
59587;SDS011;45412;54.472;18.464;2023-08-06T08:59:47;9.60;;;3.90;;
59587;SDS011;45412;54.472;18.464;2023-08-06T09:02:34;8.30;;;3.50;;
59587;SDS011;45412;54.472;18.464;2023-08-06T09:05:22;10.70;;;3.70;;
59587;SDS011;45412;54.472;18.464;2023-08-06T09:08:17;9.00;;;4.30;;
59587;SDS011;45412;54.472;18.464;2023-08-06T09:11:06;10.30;;;5.80;;
59587;SDS011;45412;54.472;18.464;2023-08-06T09:13:56;10.00;;;4.70;;
59587;SDS011;45412;54.472;18.464;2023-08-06T09:16:43;10.90;;;5.30;;
59587;SDS011;45412;54.472;18.464;2023-08-06T09:19:31;11.20;;;5.70;;
59587;SDS011;45412;54.472;18.464;2023-08-06T09:22:26;8.50;;;4.10;;
59587;SDS011;45412;54.472;18.464;2023-08-06T09:25:45;9.90;;;5.10;;
59587;SDS011;45412;54.472;18.464;2023-08-06T09:28:41;9.80;;;5.00;;
59587;SDS011;45412;54.472;18.464;2023-08-06T09:31:46;12.40;;;5.50;;
59587;SDS011;45412;54.472;18.464;2023-08-06T09:34:39;11.00;;;5.60;;
59587;SDS011;45412;54.472;18.464;2023-08-06T09:37:35;11.30;;;5.80;;
59587;SDS011;45412;54.472;18.464;2023-08-06T09:40:30;10.60;;;5.50;;
59587;SDS011;45412;54.472;18.464;2023-08-06T09:43:19;11.00;;;5.80;;
59587;SDS011;45412;54.472;18.464;2023-08-06T09:46:16;10.80;;;5.40;;
59587;SDS011;45412;54.472;18.464;2023-08-06T09:49:43;13.10;;;6.40;;
59587;SDS011;45412;54.472;18.464;2023-08-06T09:52:38;12.20;;;5.80;;
59587;SDS011;45412;54.472;18.464;2023-08-06T09:55:25;11.30;;;5.60;;
59587;SDS011;45412;54.472;18.464;2023-08-06T09:58:13;11.10;;;5.50;;
59587;SDS011;45412;54.472;18.464;2023-08-06T10:01:02;14.00;;;6.30;;
59587;SDS011;45412;54.472;18.464;2023-08-06T10:03:50;12.30;;;5.60;;
59587;SDS011;45412;54.472;18.464;2023-08-06T10:06:40;10.60;;;5.10;;
59587;SDS011;45412;54.472;18.464;2023-08-06T10:09:30;12.90;;;6.50;;
59587;SDS011;45412;54.472;18.464;2023-08-06T10:12:16;16.90;;;6.60;;
59587;SDS011;45412;54.472;18.464;2023-08-06T10:15:09;10.90;;;6.00;;
59587;SDS011;45412;54.472;18.464;2023-08-06T10:17:59;14.10;;;8.00;;
59587;SDS011;45412;54.472;18.464;2023-08-06T10:20:48;14.20;;;8.00;;
59587;SDS011;45412;54.472;18.464;2023-08-06T10:23:36;13.30;;;6.70;;
59587;SDS011;45412;54.472;18.464;2023-08-06T10:26:29;11.40;;;6.90;;
59587;SDS011;45412;54.472;18.464;2023-08-06T10:29:43;12.50;;;6.70;;
59587;SDS011;45412;54.472;18.464;2023-08-06T10:32:47;12.50;;;6.80;;
59587;SDS011;45412;54.472;18.464;2023-08-06T10:35:46;15.50;;;6.60;;
59587;SDS011;45412;54.472;18.464;2023-08-06T10:38:49;13.20;;;7.20;;
59587;SDS011;45412;54.472;18.464;2023-08-06T10:41:37;12.90;;;7.30;;
59587;SDS011;45412;54.472;18.464;2023-08-06T10:44:30;15.40;;;8.10;;
59587;SDS011;45412;54.472;18.464;2023-08-06T10:47:27;14.40;;;7.50;;
59587;SDS011;45412;54.472;18.464;2023-08-06T10:50:16;13.00;;;7.10;;
59587;SDS011;45412;54.472;18.464;2023-08-06T10:53:04;11.80;;;7.10;;
59587;SDS011;45412;54.472;18.464;2023-08-06T10:55:54;16.20;;;7.80;;
59587;SDS011;45412;54.472;18.464;2023-08-06T10:58:43;13.40;;;7.60;;
59587;SDS011;45412;54.472;18.464;2023-08-06T11:01:31;13.40;;;7.90;;
59587;SDS011;45412;54.472;18.464;2023-08-06T11:04:21;14.60;;;7.80;;
59587;SDS011;45412;54.472;18.464;2023-08-06T11:07:10;15.70;;;8.20;;
59587;SDS011;45412;54.472;18.464;2023-08-06T11:10:06;14.70;;;7.90;;
59587;SDS011;45412;54.472;18.464;2023-08-06T11:12:54;17.10;;;9.40;;
59587;SDS011;45412;54.472;18.464;2023-08-06T11:15:41;15.70;;;8.10;;
59587;SDS011;45412;54.472;18.464;2023-08-06T11:18:29;14.10;;;7.80;;
59587;SDS011;45412;54.472;18.464;2023-08-06T11:21:20;15.00;;;7.90;;
59587;SDS011;45412;54.472;18.464;2023-08-06T11:24:10;13.60;;;7.80;;
59587;SDS011;45412;54.472;18.464;2023-08-06T11:26:57;15.10;;;8.00;;
59587;SDS011;45412;54.472;18.464;2023-08-06T11:29:44;16.10;;;8.30;;
59587;SDS011;45412;54.472;18.464;2023-08-06T11:32:31;15.40;;;8.00;;
59587;SDS011;45412;54.472;18.464;2023-08-06T11:35:22;13.80;;;8.30;;
59587;SDS011;45412;54.472;18.464;2023-08-06T11:38:13;13.00;;;7.40;;
59587;SDS011;45412;54.472;18.464;2023-08-06T11:41:09;15.30;;;8.00;;
59587;SDS011;45412;54.472;18.464;2023-08-06T11:43:58;13.20;;;7.10;;
59587;SDS011;45412;54.472;18.464;2023-08-06T11:46:55;13.40;;;7.80;;
59587;SDS011;45412;54.472;18.464;2023-08-06T11:49:48;16.00;;;8.00;;
59587;SDS011;45412;54.472;18.464;2023-08-06T11:52:40;13.70;;;7.50;;
59587;SDS011;45412;54.472;18.464;2023-08-06T11:55:28;14.30;;;8.20;;
59587;SDS011;45412;54.472;18.464;2023-08-06T11:58:16;13.30;;;8.30;;
59587;SDS011;45412;54.472;18.464;2023-08-06T12:01:04;13.00;;;7.80;;
59587;SDS011;45412;54.472;18.464;2023-08-06T12:03:59;13.50;;;8.30;;
59587;SDS011;45412;54.472;18.464;2023-08-06T12:06:51;14.20;;;8.20;;
59587;SDS011;45412;54.472;18.464;2023-08-06T12:09:43;12.70;;;8.00;;
59587;SDS011;45412;54.472;18.464;2023-08-06T12:12:33;12.40;;;8.10;;
59587;SDS011;45412;54.472;18.464;2023-08-06T12:15:22;12.90;;;8.80;;
59587;SDS011;45412;54.472;18.464;2023-08-06T12:18:11;14.60;;;8.60;;
59587;SDS011;45412;54.472;18.464;2023-08-06T12:20:58;14.80;;;8.70;;
59587;SDS011;45412;54.472;18.464;2023-08-06T12:23:55;15.90;;;8.70;;
59587;SDS011;45412;54.472;18.464;2023-08-06T12:26:43;21.60;;;10.50;;
59587;SDS011;45412;54.472;18.464;2023-08-06T12:29:30;13.30;;;8.70;;
59587;SDS011;45412;54.472;18.464;2023-08-06T12:32:23;14.40;;;9.00;;
59587;SDS011;45412;54.472;18.464;2023-08-06T12:35:20;14.90;;;8.60;;
59587;SDS011;45412;54.472;18.464;2023-08-06T12:38:09;15.20;;;9.60;;
59587;SDS011;45412;54.472;18.464;2023-08-06T12:41:05;14.90;;;8.80;;
59587;SDS011;45412;54.472;18.464;2023-08-06T12:43:55;13.80;;;8.60;;
59587;SDS011;45412;54.472;18.464;2023-08-06T12:46:44;15.10;;;8.00;;
59587;SDS011;45412;54.472;18.464;2023-08-06T12:49:31;15.50;;;9.00;;
59587;SDS011;45412;54.472;18.464;2023-08-06T12:52:20;14.50;;;8.00;;
59587;SDS011;45412;54.472;18.464;2023-08-06T12:55:09;14.60;;;8.80;;
59587;SDS011;45412;54.472;18.464;2023-08-06T12:57:58;13.50;;;8.70;;
59587;SDS011;45412;54.472;18.464;2023-08-06T13:01:04;13.00;;;8.70;;
59587;SDS011;45412;54.472;18.464;2023-08-06T13:04:15;14.00;;;7.80;;
59587;SDS011;45412;54.472;18.464;2023-08-06T13:07:09;14.80;;;8.20;;
59587;SDS011;45412;54.472;18.464;2023-08-06T13:09:57;12.50;;;8.20;;
59587;SDS011;45412;54.472;18.464;2023-08-06T13:12:45;11.40;;;8.40;;
59587;SDS011;45412;54.472;18.464;2023-08-06T13:15:33;12.00;;;8.20;;
59587;SDS011;45412;54.472;18.464;2023-08-06T13:18:23;13.70;;;9.00;;
59587;SDS011;45412;54.472;18.464;2023-08-06T13:21:13;13.10;;;9.00;;
59587;SDS011;45412;54.472;18.464;2023-08-06T13:24:03;13.10;;;8.60;;
59587;SDS011;45412;54.472;18.464;2023-08-06T13:26:53;12.80;;;8.60;;
59587;SDS011;45412;54.472;18.464;2023-08-06T13:29:43;12.80;;;8.40;;
59587;SDS011;45412;54.472;18.464;2023-08-06T13:32:32;12.40;;;8.50;;
59587;SDS011;45412;54.472;18.464;2023-08-06T13:35:23;13.50;;;8.50;;
59587;SDS011;45412;54.472;18.464;2023-08-06T13:38:12;12.30;;;8.50;;
59587;SDS011;45412;54.472;18.464;2023-08-06T13:41:05;13.50;;;8.90;;
59587;SDS011;45412;54.472;18.464;2023-08-06T13:44:08;12.10;;;8.50;;
59587;SDS011;45412;54.472;18.464;2023-08-06T13:47:01;13.70;;;9.20;;
59587;SDS011;45412;54.472;18.464;2023-08-06T13:49:53;14.40;;;8.90;;
59587;SDS011;45412;54.472;18.464;2023-08-06T13:52:45;12.60;;;9.00;;
59587;SDS011;45412;54.472;18.464;2023-08-06T13:55:32;12.10;;;8.70;;
59587;SDS011;45412;54.472;18.464;2023-08-06T13:58:24;12.70;;;8.40;;
59587;SDS011;45412;54.472;18.464;2023-08-06T14:01:17;11.00;;;8.00;;
59587;SDS011;45412;54.472;18.464;2023-08-06T14:04:09;13.30;;;9.50;;
59587;SDS011;45412;54.472;18.464;2023-08-06T14:06:57;13.20;;;8.60;;
59587;SDS011;45412;54.472;18.464;2023-08-06T14:09:46;13.30;;;8.90;;
59587;SDS011;45412;54.472;18.464;2023-08-06T14:12:34;13.70;;;9.10;;
59587;SDS011;45412;54.472;18.464;2023-08-06T14:15:22;15.40;;;9.30;;
59587;SDS011;45412;54.472;18.464;2023-08-06T14:18:16;12.50;;;9.20;;
59587;SDS011;45412;54.472;18.464;2023-08-06T14:21:05;13.20;;;9.80;;
59587;SDS011;45412;54.472;18.464;2023-08-06T14:23:53;13.00;;;9.30;;
59587;SDS011;45412;54.472;18.464;2023-08-06T14:26:45;12.90;;;9.00;;
59587;SDS011;45412;54.472;18.464;2023-08-06T14:29:43;12.40;;;8.80;;
59587;SDS011;45412;54.472;18.464;2023-08-06T14:32:39;13.10;;;9.20;;
59587;SDS011;45412;54.472;18.464;2023-08-06T14:35:26;14.10;;;10.30;;
59587;SDS011;45412;54.472;18.464;2023-08-06T14:38:16;15.20;;;10.20;;
59587;SDS011;45412;54.472;18.464;2023-08-06T14:41:04;15.20;;;9.80;;
59587;SDS011;45412;54.472;18.464;2023-08-06T14:43:54;12.90;;;9.80;;
59587;SDS011;45412;54.472;18.464;2023-08-06T14:46:53;15.20;;;10.00;;
59587;SDS011;45412;54.472;18.464;2023-08-06T14:49:41;14.60;;;10.70;;
59587;SDS011;45412;54.472;18.464;2023-08-06T14:52:29;14.20;;;10.40;;
59587;SDS011;45412;54.472;18.464;2023-08-06T14:55:24;15.00;;;9.90;;
59587;SDS011;45412;54.472;18.464;2023-08-06T14:58:12;14.80;;;10.90;;
59587;SDS011;45412;54.472;18.464;2023-08-06T15:01:00;14.20;;;11.00;;
59587;SDS011;45412;54.472;18.464;2023-08-06T15:03:54;15.60;;;10.90;;
59587;SDS011;45412;54.472;18.464;2023-08-06T15:06:44;15.10;;;10.60;;
59587;SDS011;45412;54.472;18.464;2023-08-06T15:09:37;14.80;;;10.90;;
59587;SDS011;45412;54.472;18.464;2023-08-06T15:12:48;16.70;;;11.40;;
59587;SDS011;45412;54.472;18.464;2023-08-06T15:15:46;17.70;;;12.80;;
59587;SDS011;45412;54.472;18.464;2023-08-06T15:18:34;18.40;;;11.60;;
59587;SDS011;45412;54.472;18.464;2023-08-06T15:21:21;16.60;;;11.50;;
59587;SDS011;45412;54.472;18.464;2023-08-06T15:24:08;16.70;;;12.40;;
59587;SDS011;45412;54.472;18.464;2023-08-06T15:26:55;19.00;;;11.80;;
59587;SDS011;45412;54.472;18.464;2023-08-06T15:29:44;18.40;;;12.40;;
59587;SDS011;45412;54.472;18.464;2023-08-06T15:32:33;15.60;;;12.50;;
59587;SDS011;45412;54.472;18.464;2023-08-06T15:35:26;20.30;;;13.40;;
59587;SDS011;45412;54.472;18.464;2023-08-06T15:38:13;16.20;;;11.30;;
59587;SDS011;45412;54.472;18.464;2023-08-06T15:41:00;18.10;;;11.80;;
59587;SDS011;45412;54.472;18.464;2023-08-06T15:43:49;17.50;;;12.70;;
59587;SDS011;45412;54.472;18.464;2023-08-06T15:46:37;17.30;;;13.10;;
59587;SDS011;45412;54.472;18.464;2023-08-06T15:49:24;16.20;;;11.50;;
59587;SDS011;45412;54.472;18.464;2023-08-06T15:52:11;19.20;;;11.90;;
59587;SDS011;45412;54.472;18.464;2023-08-06T15:54:58;17.60;;;12.50;;
59587;SDS011;45412;54.472;18.464;2023-08-06T15:57:52;19.30;;;13.40;;
59587;SDS011;45412;54.472;18.464;2023-08-06T16:00:39;19.60;;;12.50;;
59587;SDS011;45412;54.472;18.464;2023-08-06T16:03:32;16.90;;;12.00;;
59587;SDS011;45412;54.472;18.464;2023-08-06T16:06:21;15.90;;;12.00;;
59587;SDS011;45412;54.472;18.464;2023-08-06T16:09:15;16.80;;;11.60;;
59587;SDS011;45412;54.472;18.464;2023-08-06T16:12:04;17.90;;;12.70;;
59587;SDS011;45412;54.472;18.464;2023-08-06T16:14:57;18.50;;;12.60;;
59587;SDS011;45412;54.472;18.464;2023-08-06T16:17:47;17.40;;;12.80;;
59587;SDS011;45412;54.472;18.464;2023-08-06T16:20:42;16.70;;;12.50;;
59587;SDS011;45412;54.472;18.464;2023-08-06T16:23:29;18.40;;;12.70;;
59587;SDS011;45412;54.472;18.464;2023-08-06T16:26:16;19.10;;;13.30;;
59587;SDS011;45412;54.472;18.464;2023-08-06T16:29:05;18.00;;;13.10;;
59587;SDS011;45412;54.472;18.464;2023-08-06T16:31:51;18.50;;;13.80;;
59587;SDS011;45412;54.472;18.464;2023-08-06T16:35:05;18.60;;;12.70;;
59587;SDS011;45412;54.472;18.464;2023-08-06T16:37:59;20.30;;;13.10;;
59587;SDS011;45412;54.472;18.464;2023-08-06T16:40:53;19.80;;;12.20;;
59587;SDS011;45412;54.472;18.464;2023-08-06T16:43:41;17.60;;;12.00;;
59587;SDS011;45412;54.472;18.464;2023-08-06T16:46:29;17.80;;;11.80;;